createdAt,value
2023-05-01T00:00:51.988Z,418.00
2023-05-01T00:01:52.098Z,419.00
2023-05-01T00:02:52.226Z,419.00
2023-05-01T00:03:52.490Z,418.00
2023-05-01T00:04:52.270Z,420.00
2023-05-01T00:05:52.261Z,419.00
2023-05-01T00:06:52.518Z,420.00
2023-05-01T00:07:52.380Z,421.00
2023-05-01T00:08:52.483Z,420.00
2023-05-01T00:09:52.502Z,420.00
2023-05-01T00:10:52.615Z,417.00
2023-05-01T00:11:52.639Z,417.00
2023-05-01T00:12:52.718Z,419.00
2023-05-01T00:13:52.728Z,419.00
2023-05-01T00:14:52.849Z,419.00
2023-05-01T00:15:52.872Z,420.00
2023-05-01T00:16:52.990Z,419.00
2023-05-01T00:17:52.995Z,419.00
2023-05-01T00:18:53.027Z,420.00
2023-05-01T00:19:53.188Z,420.00
2023-05-01T00:20:53.151Z,421.00
2023-05-01T00:21:53.222Z,420.00
2023-05-01T00:22:53.306Z,420.00
2023-05-01T00:23:53.346Z,421.00
2023-05-01T00:24:53.385Z,421.00
2023-05-01T00:25:53.487Z,422.00
2023-05-01T00:26:53.535Z,422.00
2023-05-01T00:27:53.576Z,425.00
2023-05-01T00:28:53.654Z,423.00
2023-05-01T00:29:53.888Z,423.00
2023-05-01T00:30:53.768Z,421.00
2023-05-01T00:31:53.914Z,422.00
2023-05-01T00:32:53.986Z,427.00
2023-05-01T00:33:53.945Z,429.00
2023-05-01T00:34:53.960Z,432.00
2023-05-01T00:35:54.081Z,428.00
2023-05-01T00:36:54.093Z,430.00
2023-05-01T00:37:54.125Z,425.00
2023-05-01T00:38:54.185Z,426.00
2023-05-01T00:39:54.526Z,427.00
2023-05-01T00:40:54.307Z,426.00
2023-05-01T00:41:54.376Z,431.00
2023-05-01T00:42:54.432Z,433.00
2023-05-01T00:43:54.516Z,434.00
2023-05-01T00:44:54.602Z,433.00
2023-05-01T00:45:54.691Z,432.00
2023-05-01T00:46:54.706Z,430.00
2023-05-01T00:47:54.778Z,428.00
2023-05-01T00:48:54.817Z,429.00
2023-05-01T00:49:55.077Z,426.00
2023-05-01T00:50:54.897Z,428.00
2023-05-01T00:51:54.989Z,425.00
2023-05-01T00:52:55.065Z,424.00
2023-05-01T00:53:55.151Z,424.00
2023-05-01T00:54:55.165Z,422.00
2023-05-01T00:55:55.230Z,422.00
2023-05-01T00:56:55.277Z,422.00
2023-05-01T00:57:55.369Z,424.00
2023-05-01T00:58:55.394Z,424.00
2023-05-01T00:59:55.692Z,425.00
2023-05-01T01:00:55.593Z,424.00
2023-05-01T01:01:56.572Z,424.00
2023-05-01T01:02:55.718Z,426.00
2023-05-01T01:03:55.776Z,426.00
2023-05-01T01:04:55.921Z,424.00
2023-05-01T01:05:55.905Z,422.00
2023-05-01T01:06:55.961Z,422.00
2023-05-01T01:07:55.984Z,423.00
2023-05-01T01:08:56.011Z,421.00
2023-05-01T01:09:56.215Z,422.00
2023-05-01T01:10:56.168Z,420.00
2023-05-01T01:11:56.198Z,420.00
2023-05-01T01:12:56.229Z,420.00
2023-05-01T01:13:56.322Z,419.00
2023-05-01T01:14:56.353Z,417.00
2023-05-01T01:15:56.432Z,419.00
2023-05-01T01:16:56.511Z,418.00
2023-05-01T01:17:56.645Z,419.00
2023-05-01T01:18:56.628Z,420.00
2023-05-01T01:19:56.917Z,420.00
2023-05-01T01:20:56.703Z,420.00
2023-05-01T01:21:56.846Z,422.00
2023-05-01T01:22:56.841Z,423.00
2023-05-01T01:23:56.896Z,423.00
2023-05-01T01:24:56.939Z,421.00
2023-05-01T01:25:57.052Z,418.00
2023-05-01T01:26:57.025Z,418.00
2023-05-01T01:27:57.097Z,418.00
2023-05-01T01:29:03.893Z,419.00
2023-05-01T01:29:57.333Z,417.00
2023-05-01T01:30:57.181Z,417.00
2023-05-01T01:31:57.115Z,415.00
2023-05-01T01:32:57.125Z,414.00
2023-05-01T01:33:57.098Z,415.00
2023-05-01T01:34:57.070Z,416.00
2023-05-01T01:35:57.077Z,420.00
2023-05-01T01:36:57.038Z,421.00
2023-05-01T01:37:57.041Z,419.00
2023-05-01T01:38:57.066Z,419.00
2023-05-01T01:39:57.268Z,418.00
2023-05-01T01:40:57.075Z,419.00
2023-05-01T01:41:57.026Z,420.00
2023-05-01T01:42:57.025Z,421.00
2023-05-01T01:43:57.028Z,421.00
2023-05-01T01:44:57.053Z,422.00
2023-05-01T01:45:57.043Z,422.00
2023-05-01T01:46:57.014Z,418.00
2023-05-01T01:47:57.064Z,416.00
2023-05-01T01:48:57.027Z,415.00
2023-05-01T01:49:57.110Z,416.00
2023-05-01T01:50:56.974Z,418.00
2023-05-01T01:51:56.992Z,417.00
2023-05-01T01:52:56.979Z,419.00
2023-05-01T01:53:56.977Z,419.00
2023-05-01T01:54:56.948Z,420.00
2023-05-01T01:55:56.960Z,420.00
2023-05-01T01:56:56.975Z,422.00
2023-05-01T01:57:56.929Z,419.00
2023-05-01T01:58:56.930Z,419.00
2023-05-01T01:59:57.023Z,419.00
2023-05-01T02:00:56.950Z,419.00
2023-05-01T02:01:56.947Z,419.00
2023-05-01T02:02:56.975Z,420.00
2023-05-01T02:03:57.006Z,423.00
2023-05-01T02:04:56.876Z,420.00
2023-05-01T02:05:56.892Z,422.00
2023-05-01T02:06:56.858Z,423.00
2023-05-01T02:07:56.919Z,424.00
2023-05-01T02:08:56.931Z,424.00
2023-05-01T02:09:57.178Z,424.00
2023-05-01T02:10:56.844Z,424.00
2023-05-01T02:11:56.877Z,423.00
2023-05-01T02:12:56.844Z,424.00
2023-05-01T02:13:56.838Z,421.00
2023-05-01T02:14:56.792Z,422.00
2023-05-01T02:15:56.901Z,421.00
2023-05-01T02:16:56.872Z,419.00
2023-05-01T02:17:56.957Z,419.00
2023-05-01T02:18:56.927Z,419.00
2023-05-01T02:19:57.147Z,422.00
2023-05-01T02:20:56.988Z,422.00
2023-05-01T02:21:56.988Z,423.00
2023-05-01T02:22:57.043Z,423.00
2023-05-01T02:23:57.063Z,424.00
2023-05-01T02:24:57.045Z,422.00
2023-05-01T02:25:57.075Z,422.00
2023-05-01T02:26:57.148Z,421.00
2023-05-01T02:27:57.093Z,423.00
2023-05-01T02:28:57.134Z,423.00
2023-05-01T02:29:57.381Z,423.00
2023-05-01T02:30:57.163Z,423.00
2023-05-01T02:31:57.319Z,423.00
2023-05-01T02:32:57.166Z,422.00
2023-05-01T02:33:57.129Z,420.00
2023-05-01T02:34:57.205Z,418.00
2023-05-01T02:35:57.193Z,418.00
2023-05-01T02:36:57.200Z,417.00
2023-05-01T02:37:57.211Z,417.00
2023-05-01T02:38:57.221Z,417.00
2023-05-01T02:39:57.465Z,417.00
2023-05-01T02:40:57.296Z,420.00
2023-05-01T02:41:57.275Z,420.00
2023-05-01T02:42:57.307Z,420.00
2023-05-01T02:43:57.355Z,421.00
2023-05-01T02:44:57.356Z,420.00
2023-05-01T02:45:57.490Z,420.00
2023-05-01T02:46:57.396Z,417.00
2023-05-01T02:47:57.361Z,417.00
2023-05-01T02:48:57.344Z,416.00
2023-05-01T02:49:57.612Z,409.00
2023-05-01T02:50:57.362Z,412.00
2023-05-01T02:51:57.363Z,413.00
2023-05-01T02:52:57.420Z,412.00
2023-05-01T02:53:57.443Z,415.00
2023-05-01T02:54:57.422Z,416.00
2023-05-01T02:55:57.438Z,417.00
2023-05-01T02:56:57.384Z,420.00
2023-05-01T02:57:57.450Z,420.00
2023-05-01T02:58:57.429Z,418.00
2023-05-01T02:59:57.656Z,417.00
2023-05-01T03:00:57.462Z,419.00
2023-05-01T03:01:57.474Z,419.00
2023-05-01T03:02:57.462Z,418.00
2023-05-01T03:03:57.463Z,418.00
2023-05-01T03:04:57.520Z,416.00
2023-05-01T03:05:57.641Z,418.00
2023-05-01T03:06:57.503Z,421.00
2023-05-01T03:07:57.523Z,424.00
2023-05-01T03:08:57.516Z,425.00
2023-05-01T03:09:57.800Z,423.00
2023-05-01T03:10:57.539Z,422.00
2023-05-01T03:11:57.530Z,420.00
2023-05-01T03:12:57.562Z,420.00
2023-05-01T03:13:57.570Z,419.00
2023-05-01T03:14:57.560Z,419.00
2023-05-01T03:15:57.604Z,418.00
2023-05-01T03:16:57.568Z,418.00
2023-05-01T03:17:57.624Z,420.00
2023-05-01T03:18:57.598Z,421.00
2023-05-01T03:19:57.777Z,421.00
2023-05-01T03:20:57.549Z,419.00
2023-05-01T03:21:57.968Z,416.00
2023-05-01T03:22:57.578Z,414.00
2023-05-01T03:23:57.575Z,413.00
2023-05-01T03:24:57.590Z,413.00
2023-05-01T03:25:57.558Z,413.00
2023-05-01T03:26:57.539Z,413.00
2023-05-01T03:27:57.565Z,415.00
2023-05-01T03:28:57.551Z,416.00
2023-05-01T03:29:57.769Z,418.00
2023-05-01T03:30:57.566Z,419.00
2023-05-01T03:31:57.613Z,419.00
2023-05-01T03:32:57.582Z,417.00
2023-05-01T03:33:57.504Z,416.00
2023-05-01T03:34:57.653Z,419.00
2023-05-01T03:35:57.491Z,419.00
2023-05-01T03:36:57.478Z,418.00
2023-05-01T03:37:57.521Z,417.00
2023-05-01T03:38:57.470Z,420.00
2023-05-01T03:39:57.810Z,420.00
2023-05-01T03:40:57.482Z,419.00
2023-05-01T03:41:57.489Z,418.00
2023-05-01T03:42:57.485Z,418.00
2023-05-01T03:43:57.491Z,417.00
2023-05-01T03:44:57.525Z,413.00
2023-05-01T03:45:57.572Z,413.00
2023-05-01T03:46:57.472Z,412.00
2023-05-01T03:47:57.498Z,411.00
2023-05-01T03:48:57.491Z,414.00
2023-05-01T03:49:57.860Z,414.00
2023-05-01T03:50:57.493Z,415.00
2023-05-01T03:51:57.507Z,414.00
2023-05-01T03:52:57.520Z,416.00
2023-05-01T03:53:57.515Z,419.00
2023-05-01T03:54:57.524Z,419.00
2023-05-01T03:55:57.501Z,420.00
2023-05-01T03:56:57.535Z,421.00
2023-05-01T03:57:57.537Z,422.00
2023-05-01T03:58:57.541Z,422.00
2023-05-01T03:59:57.794Z,423.00
2023-05-01T04:00:57.580Z,423.00
2023-05-01T04:01:57.690Z,422.00
2023-05-01T04:02:57.870Z,421.00
2023-05-01T04:03:57.647Z,422.00
2023-05-01T04:04:57.639Z,420.00
2023-05-01T04:05:57.688Z,418.00
2023-05-01T04:06:57.609Z,418.00
2023-05-01T04:07:57.606Z,419.00
2023-05-01T04:08:57.641Z,418.00
2023-05-01T04:09:57.991Z,417.00
2023-05-01T04:10:57.632Z,418.00
2023-05-01T04:11:57.652Z,417.00
2023-05-01T04:12:57.680Z,418.00
2023-05-01T04:13:57.655Z,418.00
2023-05-01T04:14:57.723Z,417.00
2023-05-01T04:15:57.739Z,417.00
2023-05-01T04:16:57.683Z,420.00
2023-05-01T04:17:57.654Z,419.00
2023-05-01T04:18:57.691Z,416.00
2023-05-01T04:19:58.193Z,417.00
2023-05-01T04:20:57.714Z,416.00
2023-05-01T04:21:57.715Z,416.00
2023-05-01T04:22:57.724Z,414.00
2023-05-01T04:23:57.667Z,414.00
2023-05-01T04:24:57.707Z,415.00
2023-05-01T04:25:57.721Z,415.00
2023-05-01T04:26:57.750Z,415.00
2023-05-01T04:27:57.730Z,416.00
2023-05-01T04:28:57.773Z,414.00
2023-05-01T04:29:58.177Z,414.00
2023-05-01T04:30:57.751Z,415.00
2023-05-01T04:31:57.921Z,416.00
2023-05-01T04:32:57.780Z,416.00
2023-05-01T04:33:57.795Z,416.00
2023-05-01T04:34:57.997Z,419.00
2023-05-01T04:35:57.792Z,419.00
2023-05-01T04:36:57.818Z,424.00
2023-05-01T04:37:57.820Z,424.00
2023-05-01T04:38:57.822Z,427.00
2023-05-01T04:39:58.068Z,424.00
2023-05-01T04:40:57.831Z,423.00
2023-05-01T04:41:57.848Z,424.00
2023-05-01T04:42:57.846Z,426.00
2023-05-01T04:43:57.876Z,426.00
2023-05-01T04:44:57.860Z,427.00
2023-05-01T04:45:57.889Z,425.00
2023-05-01T04:46:57.929Z,422.00
2023-05-01T04:47:57.949Z,423.00
2023-05-01T04:48:57.920Z,424.00
2023-05-01T04:49:58.130Z,423.00
2023-05-01T04:50:57.901Z,421.00
2023-05-01T04:51:57.904Z,418.00
2023-05-01T04:52:57.941Z,417.00
2023-05-01T04:53:57.924Z,417.00
2023-05-01T04:54:57.948Z,418.00
2023-05-01T04:55:57.928Z,420.00
2023-05-01T04:56:57.946Z,423.00
2023-05-01T04:57:57.927Z,422.00
2023-05-01T04:58:57.969Z,421.00
2023-05-01T04:59:58.196Z,418.00
2023-05-01T05:00:57.973Z,419.00
2023-05-01T05:01:58.129Z,420.00
2023-05-01T05:02:58.015Z,419.00
2023-05-01T05:03:58.165Z,417.00
2023-05-01T05:04:58.012Z,418.00
2023-05-01T05:05:58.029Z,418.00
2023-05-01T05:06:58.011Z,417.00
2023-05-01T05:07:58.001Z,415.00
2023-05-01T05:08:58.018Z,416.00
2023-05-01T05:09:58.320Z,415.00
2023-05-01T05:10:58.040Z,415.00
2023-05-01T05:11:58.014Z,417.00
2023-05-01T05:12:58.065Z,418.00
2023-05-01T05:13:58.078Z,417.00
2023-05-01T05:14:58.061Z,417.00
2023-05-01T05:15:58.115Z,417.00
2023-05-01T05:16:58.342Z,416.00
2023-05-01T05:17:58.175Z,415.00
2023-05-01T05:18:58.089Z,417.00
2023-05-01T05:19:58.456Z,419.00
2023-05-01T05:20:58.109Z,420.00
2023-05-01T05:21:58.322Z,421.00
2023-05-01T05:22:58.150Z,420.00
2023-05-01T05:23:58.230Z,418.00
2023-05-01T05:24:58.186Z,417.00
2023-05-01T05:25:58.189Z,416.00
2023-05-01T05:26:58.203Z,417.00
2023-05-01T05:27:58.209Z,415.00
2023-05-01T05:28:58.214Z,415.00
2023-05-01T05:29:58.339Z,416.00
2023-05-01T05:30:58.218Z,415.00
2023-05-01T05:31:58.282Z,415.00
2023-05-01T05:32:58.336Z,416.00
2023-05-01T05:33:58.316Z,417.00
2023-05-01T05:34:58.307Z,418.00
2023-05-01T05:35:58.324Z,419.00
2023-05-01T05:36:58.337Z,420.00
2023-05-01T05:37:58.322Z,422.00
2023-05-01T05:38:58.339Z,425.00
2023-05-01T05:39:58.528Z,423.00
2023-05-01T05:40:58.354Z,422.00
2023-05-01T05:41:58.362Z,422.00
2023-05-01T05:42:58.359Z,422.00
2023-05-01T05:43:58.362Z,421.00
2023-05-01T05:44:58.384Z,420.00
2023-05-01T05:45:58.410Z,420.00
2023-05-01T05:46:58.392Z,419.00
2023-05-01T05:47:58.416Z,419.00
2023-05-01T05:48:58.355Z,420.00
2023-05-01T05:49:58.665Z,419.00
2023-05-01T05:50:58.389Z,420.00
2023-05-01T05:51:58.423Z,419.00
2023-05-01T05:52:58.430Z,418.00
2023-05-01T05:53:58.449Z,418.00
2023-05-01T05:54:58.382Z,420.00
2023-05-01T05:55:58.440Z,421.00
2023-05-01T05:56:58.470Z,421.00
2023-05-01T05:57:58.457Z,421.00
2023-05-01T05:58:58.482Z,420.00
2023-05-01T05:59:58.651Z,421.00
2023-05-01T06:00:58.457Z,420.00
2023-05-01T06:01:58.572Z,419.00
2023-05-01T06:02:58.518Z,417.00
2023-05-01T06:03:58.457Z,418.00
2023-05-01T06:04:58.489Z,416.00
2023-05-01T06:05:58.685Z,416.00
2023-05-01T06:06:58.595Z,417.00
2023-05-01T06:07:58.475Z,417.00
2023-05-01T06:08:58.498Z,417.00
2023-05-01T06:09:58.721Z,418.00
2023-05-01T06:10:58.505Z,416.00
2023-05-01T06:11:58.506Z,415.00
2023-05-01T06:13:03.949Z,415.00
2023-05-01T06:13:59.479Z,415.00
2023-05-01T06:14:58.466Z,415.00
2023-05-01T06:15:58.528Z,413.00
2023-05-01T06:16:58.464Z,414.00
2023-05-01T06:17:58.532Z,415.00
2023-05-01T06:18:58.459Z,415.00
2023-05-01T06:19:58.608Z,415.00
2023-05-01T06:20:58.451Z,416.00
2023-05-01T06:21:58.413Z,416.00
2023-05-01T06:22:58.425Z,417.00
2023-05-01T06:23:58.469Z,416.00
2023-05-01T06:24:58.410Z,414.00
2023-05-01T06:25:58.404Z,414.00
2023-05-01T06:26:59.139Z,413.00
2023-05-01T06:27:58.417Z,412.00
2023-05-01T06:28:58.392Z,412.00
2023-05-01T06:29:58.492Z,413.00
2023-05-01T06:30:58.506Z,414.00
2023-05-01T06:31:58.352Z,414.00
2023-05-01T06:32:58.428Z,414.00
2023-05-01T06:33:58.375Z,414.00
2023-05-01T06:34:58.349Z,413.00
2023-05-01T06:35:58.360Z,414.00
2023-05-01T06:36:58.393Z,414.00
2023-05-01T06:37:58.376Z,416.00
2023-05-01T06:38:58.382Z,417.00
2023-05-01T06:39:58.608Z,417.00
2023-05-01T06:40:58.339Z,416.00
2023-05-01T06:41:58.359Z,416.00
2023-05-01T06:42:58.395Z,417.00
2023-05-01T06:43:58.354Z,418.00
2023-05-01T06:44:58.362Z,417.00
2023-05-01T06:45:58.409Z,418.00
2023-05-01T06:46:58.434Z,416.00
2023-05-01T06:47:58.399Z,414.00
2023-05-01T06:48:58.392Z,415.00
2023-05-01T06:49:58.592Z,415.00
2023-05-01T06:50:58.418Z,415.00
2023-05-01T06:51:58.405Z,416.00
2023-05-01T06:52:58.410Z,417.00
2023-05-01T06:53:58.427Z,416.00
2023-05-01T06:54:58.456Z,418.00
2023-05-01T06:55:58.468Z,417.00
2023-05-01T06:56:58.437Z,417.00
2023-05-01T06:57:59.768Z,417.00
2023-05-01T06:58:58.524Z,416.00
2023-05-01T06:59:58.707Z,417.00
2023-05-01T07:00:58.534Z,416.00
2023-05-01T07:01:58.516Z,415.00
2023-05-01T07:02:58.507Z,414.00
2023-05-01T07:03:58.453Z,416.00
2023-05-01T07:04:58.461Z,415.00
2023-05-01T07:05:58.500Z,414.00
2023-05-01T07:06:58.483Z,413.00
2023-05-01T07:08:01.562Z,413.00
2023-05-01T07:08:58.467Z,414.00
2023-05-01T07:09:58.704Z,413.00
2023-05-01T07:10:58.444Z,414.00
2023-05-01T07:11:58.428Z,415.00
2023-05-01T07:12:58.385Z,416.00
2023-05-01T07:13:58.400Z,418.00
2023-05-01T07:14:58.399Z,418.00
2023-05-01T07:15:58.419Z,418.00
2023-05-01T07:16:58.534Z,418.00
2023-05-01T07:17:58.461Z,418.00
2023-05-01T07:18:58.343Z,417.00
2023-05-01T07:19:58.632Z,416.00
2023-05-01T07:20:58.336Z,417.00
2023-05-01T07:21:58.346Z,417.00
2023-05-01T07:22:58.334Z,416.00
2023-05-01T07:23:58.333Z,415.00
2023-05-01T07:24:58.334Z,417.00
2023-05-01T07:25:58.343Z,416.00
2023-05-01T07:26:58.302Z,417.00
2023-05-01T07:27:58.304Z,414.00
2023-05-01T07:28:58.296Z,414.00
2023-05-01T07:29:58.493Z,415.00
2023-05-01T07:30:58.269Z,418.00
2023-05-01T07:31:58.283Z,416.00
2023-05-01T07:32:58.325Z,415.00
2023-05-01T07:33:58.275Z,414.00
2023-05-01T07:34:58.232Z,414.00
2023-05-01T07:35:58.283Z,413.00
2023-05-01T07:36:58.233Z,412.00
2023-05-01T07:37:58.193Z,410.00
2023-05-01T07:38:58.229Z,411.00
2023-05-01T07:39:58.459Z,409.00
2023-05-01T07:40:58.208Z,409.00
2023-05-01T07:41:58.171Z,408.00
2023-05-01T07:42:58.182Z,407.00
2023-05-01T07:43:58.169Z,407.00
2023-05-01T07:44:58.192Z,407.00
2023-05-01T07:45:58.263Z,407.00
2023-05-01T07:46:58.142Z,405.00
2023-05-01T07:47:58.180Z,409.00
2023-05-01T07:48:58.139Z,408.00
2023-05-01T07:49:58.289Z,409.00
2023-05-01T07:50:58.161Z,409.00
2023-05-01T07:51:58.173Z,409.00
2023-05-01T07:52:58.127Z,409.00
2023-05-01T07:53:58.112Z,410.00
2023-05-01T07:54:58.093Z,409.00
2023-05-01T07:55:58.092Z,410.00
2023-05-01T07:56:58.161Z,410.00
2023-05-01T07:57:58.178Z,411.00
2023-05-01T07:58:58.266Z,409.00
2023-05-01T07:59:58.565Z,409.00
2023-05-01T08:00:58.367Z,409.00
2023-05-01T08:01:58.426Z,409.00
2023-05-01T08:02:58.599Z,409.00
2023-05-01T08:03:58.605Z,409.00
2023-05-01T08:04:58.757Z,410.00
2023-05-01T08:05:58.740Z,409.00
2023-05-01T08:06:58.795Z,408.00
2023-05-01T08:07:58.800Z,404.00
2023-05-01T08:08:58.853Z,402.00
2023-05-01T08:10:00.133Z,404.00
2023-05-01T08:10:58.958Z,407.00
2023-05-01T08:11:59.015Z,409.00
2023-05-01T08:12:59.062Z,410.00
2023-05-01T08:13:59.100Z,409.00
2023-05-01T08:14:59.151Z,407.00
2023-05-01T08:15:59.301Z,406.00
2023-05-01T08:16:59.247Z,403.00
2023-05-01T08:17:59.418Z,405.00
2023-05-01T08:18:59.369Z,405.00
2023-05-01T08:19:59.416Z,405.00
2023-05-01T08:20:59.462Z,405.00
2023-05-01T08:21:59.543Z,405.00
2023-05-01T08:22:59.597Z,408.00
2023-05-01T08:23:59.622Z,410.00
2023-05-01T08:24:59.655Z,409.00
2023-05-01T08:25:59.723Z,409.00
2023-05-01T08:26:59.782Z,408.00
2023-05-01T08:27:59.816Z,407.00
2023-05-01T08:28:59.894Z,406.00
2023-05-01T08:29:59.932Z,408.00
2023-05-01T08:31:00.027Z,408.00
2023-05-01T08:32:00.130Z,407.00
2023-05-01T08:33:00.072Z,405.00
2023-05-01T08:34:00.163Z,404.00
2023-05-01T08:35:00.198Z,405.00
2023-05-01T08:36:00.238Z,407.00
2023-05-01T08:37:00.251Z,409.00
2023-05-01T08:38:00.299Z,409.00
2023-05-01T08:39:00.386Z,408.00
2023-05-01T08:40:00.449Z,406.00
2023-05-01T08:41:00.445Z,405.00
2023-05-01T08:42:00.497Z,405.00
2023-05-01T08:43:00.558Z,406.00
2023-05-01T08:44:00.601Z,404.00
2023-05-01T08:45:00.646Z,405.00
2023-05-01T08:46:00.662Z,407.00
2023-05-01T08:47:00.713Z,408.00
2023-05-01T08:48:00.823Z,409.00
2023-05-01T08:49:00.799Z,411.00
2023-05-01T08:50:00.821Z,411.00
2023-05-01T08:51:00.822Z,413.00
2023-05-01T08:52:00.863Z,412.00
2023-05-01T08:53:01.071Z,412.00
2023-05-01T08:54:00.938Z,412.00
2023-05-01T08:55:00.990Z,413.00
2023-05-01T08:56:01.029Z,412.00
2023-05-01T08:57:01.045Z,412.00
2023-05-01T08:58:01.085Z,412.00
2023-05-01T08:59:01.140Z,413.00
2023-05-01T09:00:01.155Z,411.00
2023-05-01T09:01:01.230Z,409.00
2023-05-01T09:02:01.360Z,409.00
2023-05-01T09:03:01.343Z,411.00
2023-05-01T09:04:01.255Z,412.00
2023-05-01T09:05:01.272Z,411.00
2023-05-01T09:06:01.302Z,410.00
2023-05-01T09:07:01.311Z,412.00
2023-05-01T09:08:01.386Z,410.00
2023-05-01T09:09:01.421Z,409.00
2023-05-01T09:10:01.434Z,411.00
2023-05-01T09:11:01.420Z,411.00
2023-05-01T09:12:01.459Z,411.00
2023-05-01T09:13:01.469Z,408.00
2023-05-01T09:14:01.509Z,411.00
2023-05-01T09:15:01.524Z,414.00
2023-05-01T09:16:01.697Z,413.00
2023-05-01T09:17:01.550Z,413.00
2023-05-01T09:18:03.507Z,413.00
2023-05-01T09:19:01.584Z,411.00
2023-05-01T09:20:01.587Z,409.00
2023-05-01T09:21:01.634Z,409.00
2023-05-01T09:22:01.664Z,408.00
2023-05-01T09:23:01.642Z,407.00
2023-05-01T09:24:01.717Z,408.00
2023-05-01T09:25:01.708Z,409.00
2023-05-01T09:26:01.715Z,409.00
2023-05-01T09:27:01.791Z,409.00
2023-05-01T09:28:01.752Z,409.00
2023-05-01T09:29:01.801Z,409.00
2023-05-01T09:30:01.798Z,408.00
2023-05-01T09:31:01.764Z,408.00
2023-05-01T09:32:01.850Z,409.00
2023-05-01T09:33:01.905Z,411.00
2023-05-01T09:34:01.840Z,412.00
2023-05-01T09:35:01.836Z,413.00
2023-05-01T09:36:01.854Z,412.00
2023-05-01T09:37:01.850Z,411.00
2023-05-01T09:38:01.864Z,410.00
2023-05-01T09:39:01.883Z,411.00
2023-05-01T09:40:01.897Z,413.00
2023-05-01T09:41:01.890Z,413.00
2023-05-01T09:42:01.882Z,416.00
2023-05-01T09:43:01.860Z,417.00
2023-05-01T09:44:01.925Z,415.00
2023-05-01T09:45:02.011Z,415.00
2023-05-01T09:46:01.941Z,415.00
2023-05-01T09:47:01.930Z,414.00
2023-05-01T09:48:01.983Z,415.00
2023-05-01T09:49:02.063Z,415.00
2023-05-01T09:50:01.908Z,414.00
2023-05-01T09:51:01.945Z,413.00
2023-05-01T09:52:01.909Z,410.00
2023-05-01T09:53:01.931Z,412.00
2023-05-01T09:54:01.959Z,414.00
2023-05-01T09:55:01.891Z,414.00
2023-05-01T09:56:01.931Z,413.00
2023-05-01T09:57:01.911Z,412.00
2023-05-01T09:58:01.896Z,412.00
2023-05-01T09:59:01.911Z,412.00
2023-05-01T10:00:01.898Z,410.00
2023-05-01T10:01:02.044Z,409.00
2023-05-01T10:02:01.962Z,409.00
2023-05-01T10:03:01.992Z,409.00
2023-05-01T10:04:01.939Z,409.00
2023-05-01T10:05:01.932Z,409.00
2023-05-01T10:06:01.901Z,410.00
2023-05-01T10:07:01.912Z,410.00
2023-05-01T10:08:01.908Z,407.00
2023-05-01T10:09:01.920Z,410.00
2023-05-01T10:10:02.256Z,409.00
2023-05-01T10:11:01.869Z,409.00
2023-05-01T10:12:01.884Z,409.00
2023-05-01T10:13:01.900Z,409.00
2023-05-01T10:14:01.893Z,409.00
2023-05-01T10:15:10.826Z,410.00
2023-05-01T10:16:02.909Z,411.00
2023-05-01T10:17:01.941Z,412.00
2023-05-01T10:18:01.959Z,411.00
2023-05-01T10:19:03.687Z,411.00
2023-05-01T10:20:02.073Z,410.00
2023-05-01T10:21:01.995Z,410.00
2023-05-01T10:22:02.064Z,410.00
2023-05-01T10:23:02.071Z,409.00
2023-05-01T10:24:02.063Z,410.00
2023-05-01T10:25:02.071Z,412.00
2023-05-01T10:26:03.328Z,414.00
2023-05-01T10:27:02.165Z,415.00
2023-05-01T10:28:02.164Z,415.00
2023-05-01T10:29:02.180Z,415.00
2023-05-01T10:30:02.178Z,414.00
2023-05-01T10:31:02.225Z,414.00
2023-05-01T10:32:02.353Z,413.00
2023-05-01T10:33:02.289Z,413.00
2023-05-01T10:34:02.283Z,412.00
2023-05-01T10:35:02.337Z,414.00
2023-05-01T10:36:02.353Z,414.00
2023-05-01T10:37:02.412Z,414.00
2023-05-01T10:38:02.427Z,414.00
2023-05-01T10:39:02.488Z,414.00
2023-05-01T10:40:02.488Z,412.00
2023-05-01T10:41:02.588Z,412.00
2023-05-01T10:42:02.655Z,414.00
2023-05-01T10:43:02.749Z,415.00
2023-05-01T10:44:02.741Z,415.00
2023-05-01T10:45:02.838Z,415.00
2023-05-01T10:46:02.923Z,412.00
2023-05-01T10:47:02.964Z,410.00
2023-05-01T10:48:03.021Z,410.00
2023-05-01T10:49:03.056Z,410.00
2023-05-01T10:50:03.113Z,410.00
2023-05-01T10:51:03.181Z,415.00
2023-05-01T10:52:03.218Z,415.00
2023-05-01T10:53:03.290Z,414.00
2023-05-01T10:54:03.372Z,414.00
2023-05-01T10:55:03.441Z,414.00
2023-05-01T10:56:03.478Z,412.00
2023-05-01T10:57:03.554Z,414.00
2023-05-01T10:58:03.578Z,415.00
2023-05-01T10:59:03.668Z,413.00
2023-05-01T11:00:03.708Z,414.00
2023-05-01T11:01:03.776Z,413.00
2023-05-01T11:02:03.880Z,412.00
2023-05-01T11:03:03.887Z,414.00
2023-05-01T11:04:04.000Z,414.00
2023-05-01T11:05:04.044Z,413.00
2023-05-01T11:06:04.810Z,413.00
2023-05-01T11:07:04.216Z,415.00
2023-05-01T11:08:04.212Z,416.00
2023-05-01T11:09:04.264Z,416.00
2023-05-01T11:10:04.324Z,415.00
2023-05-01T11:11:04.389Z,413.00
2023-05-01T11:12:04.451Z,413.00
2023-05-01T11:13:04.499Z,416.00
2023-05-01T11:14:04.609Z,416.00
2023-05-01T11:15:04.580Z,418.00
2023-05-01T11:16:04.698Z,418.00
2023-05-01T11:17:04.653Z,419.00
2023-05-01T11:18:04.762Z,420.00
2023-05-01T11:19:04.803Z,421.00
2023-05-01T11:20:04.858Z,422.00
2023-05-01T11:21:04.913Z,420.00
2023-05-01T11:22:04.917Z,419.00
2023-05-01T11:23:04.999Z,418.00
2023-05-01T11:24:05.033Z,418.00
2023-05-01T11:25:05.111Z,417.00
2023-05-01T11:26:05.163Z,418.00
2023-05-01T11:27:05.160Z,419.00
2023-05-01T11:28:05.216Z,418.00
2023-05-01T11:29:05.247Z,418.00
2023-05-01T11:30:05.370Z,419.00
2023-05-01T11:31:05.381Z,418.00
2023-05-01T11:32:05.466Z,417.00
2023-05-01T11:33:05.672Z,416.00
2023-05-01T11:34:05.519Z,416.00
2023-05-01T11:35:05.530Z,418.00
2023-05-01T11:36:05.586Z,420.00
2023-05-01T11:37:05.634Z,418.00
2023-05-01T11:38:05.702Z,418.00
2023-05-01T11:39:05.723Z,419.00
2023-05-01T11:40:05.761Z,418.00
2023-05-01T11:41:05.794Z,417.00
2023-05-01T11:42:05.865Z,416.00
2023-05-01T11:43:05.957Z,416.00
2023-05-01T11:44:05.964Z,415.00
2023-05-01T11:45:05.963Z,416.00
2023-05-01T11:46:06.024Z,414.00
2023-05-01T11:47:06.069Z,412.00
2023-05-01T11:48:06.168Z,412.00
2023-05-01T11:49:06.150Z,411.00
2023-05-01T11:50:06.199Z,412.00
2023-05-01T11:51:06.183Z,412.00
2023-05-01T11:52:07.149Z,413.00
2023-05-01T11:53:06.258Z,413.00
2023-05-01T11:54:06.435Z,412.00
2023-05-01T11:55:06.379Z,411.00
2023-05-01T11:56:10.866Z,410.00
2023-05-01T11:57:07.419Z,412.00
2023-05-01T11:58:06.399Z,410.00
2023-05-01T11:59:06.353Z,410.00
2023-05-01T12:00:06.380Z,410.00
2023-05-01T12:01:06.397Z,410.00
2023-05-01T12:02:06.417Z,410.00
2023-05-01T12:03:06.594Z,407.00
2023-05-01T12:04:06.521Z,408.00
2023-05-01T12:05:06.391Z,407.00
2023-05-01T12:06:06.375Z,406.00
2023-05-01T12:07:06.323Z,408.00
2023-05-01T12:08:06.363Z,407.00
2023-05-01T12:09:06.401Z,407.00
2023-05-01T12:10:06.478Z,407.00
2023-05-01T12:11:06.487Z,406.00
2023-05-01T12:12:06.554Z,408.00
2023-05-01T12:13:06.576Z,404.00
2023-05-01T12:14:06.617Z,408.00
2023-05-01T12:15:06.666Z,410.00
2023-05-01T12:16:06.682Z,411.00
2023-05-01T12:17:06.812Z,413.00
2023-05-01T12:18:06.897Z,413.00
2023-05-01T12:19:06.805Z,414.00
2023-05-01T12:20:06.854Z,415.00
2023-05-01T12:21:06.872Z,416.00
2023-05-01T12:22:06.934Z,416.00
2023-05-01T12:23:06.985Z,413.00
2023-05-01T12:24:06.996Z,410.00
2023-05-01T12:25:07.042Z,410.00
2023-05-01T12:26:07.055Z,411.00
2023-05-01T12:27:07.116Z,409.00
2023-05-01T12:28:07.120Z,409.00
2023-05-01T12:29:07.176Z,411.00